Portada
METAR-TAF:

METAR-TAF

Aeroports :

Batam, Indonèsia

latitud: 01-07-15N, longitud: 104-07-07E, altitud: 38 m

Observació

L'informe es va fer fa 33 minuts, a les 13:00 UTC
Vent 8 kt del Nord/Nord-Est
Temperatura 28°C
Humitat 74%
Pressió 1012 hPa
Visibilitat 10 km o més
Escasses núvols a una alçada de 1400 ft

METAR: WIDD 261300Z 02008KT 9999 FEW014 28/23 Q1012 NOSIG

Hora: 20:33 (13:33 UTC)

Pronòstic

L'informe es va fer fa 2 hores i 33 minuts, a les 11:00 UTC
Pronòstic vàlid del 26 a les 12 UTC al 27 a les 12 UTC
Vent 12 kt del Nord/Nord-Est
Visibilitat 10 km o més
Escasses núvols a una alçada de 1400 ft

TAF: WIDD 261100Z 2612/2712 03012KT 9999 FEW014

Observacions i pronòstics meteorològics de més de 4000 aeroports (METAR i TAF).

Les estacions disponibles són els punts grocs i vermells al mapa.

Posi el ratolí al punt desitjat per veure el nom de l'estació.

Feu clic per veure les observacions i els pronòstics meteorològics.

Per canviar el mapa: feu clic els botons verds amb una creu de color negre per apropar; al botó verd amb un guió per allunyar la imatge; o en les fletxes verdes per a mapes adjacents.


METAR-TAF: